Terminal Aerodrome Forecast
Issued by NWS

Home | Current Version | Previous Version | Text Only | Print | Product List | Glossary On
Versions: 1 2 3 4 5 6 7 8 9 10 11 12 13 14 15 16
000
FTUS44 KLZK 011100
TAFADF
TAF
KADF 011120Z 0112/0212 23010KT P6SM SCT008 OVC012
      TEMPO 0112/0114 4SM BR OVC008
     FM011500 20008G16KT P6SM SCT040 SCT250
     FM020000 15006KT P6SM SCT040 SCT100=

USA.gov is the U.S. government's official web portal to all federal, state and local government web resources and services.